Milford, Maine
Current Conditions -  °F | °C
As of 11:53 PM on Friday 19 Dec 2014 (Local Time) from KBGR Reporting Station
Clear Clear  
Wind Chill: 20°   Ceiling: Unl
Heat Index: 20°   Visibility: 10mi
Dew Point: 16°   Wind: 3mph
Humidity: 85%   Direction: 10°N
Pressure: 30.15"   Gusts: NA
Location:  44.95°N, 68.64°W
Report Text: KBGR 200453Z 01003KT 10SM CLR M07/M09 A3015 RMK AO2 SLP214 T10671089 410061078
Loading
Personal Weather Stations






























Interactive Weather Map New forecast layout! Learn more

10-Day Weather Forecast

Advertisements
Track Severe Weather on mobile